createdAt,value
2023-02-23T00:17:39.370Z,978.9
2023-02-23T00:36:58.175Z,978.8
2023-02-23T00:56:16.070Z,978.7
2023-02-23T01:15:35.851Z,978.7
2023-02-23T01:34:53.978Z,978.7
2023-02-23T01:54:13.946Z,978.6
2023-02-23T02:13:22.856Z,978.5
2023-02-23T02:32:41.785Z,978.5
2023-02-23T02:52:01.153Z,978.3
2023-02-23T03:11:19.603Z,978.2
2023-02-23T03:30:38.999Z,978.2
2023-02-23T03:49:58.473Z,978.2
2023-02-23T04:09:18.867Z,978.3
2023-02-23T04:28:38.811Z,978.3
2023-02-23T04:47:58.282Z,978.5
2023-02-23T05:07:17.438Z,978.3
2023-02-23T05:26:37.234Z,978.4
2023-02-23T05:45:56.276Z,978.5
2023-02-23T06:05:15.799Z,978.5
2023-02-23T06:24:35.569Z,978.7
2023-02-23T06:43:52.267Z,978.8
2023-02-23T07:03:12.451Z,979
2023-02-23T07:22:31.045Z,979.3
2023-02-23T07:41:50.803Z,979.5
2023-02-23T08:01:11.578Z,979.6
2023-02-23T08:20:30.016Z,979.8
2023-02-23T08:39:50.186Z,979.9
2023-02-23T08:59:10.535Z,979.9
2023-02-23T09:18:30.030Z,980.1
2023-02-23T09:37:50.469Z,980.2
2023-02-23T09:57:10.526Z,980.3
2023-02-23T10:16:28.521Z,980.4
2023-02-23T10:35:47.541Z,980.5
2023-02-23T10:55:05.364Z,980.7
2023-02-23T11:14:25.794Z,980.7
2023-02-23T11:33:45.758Z,980.6
2023-02-23T11:53:05.033Z,980.6
2023-02-23T12:12:25.106Z,980.5
2023-02-23T12:31:46.737Z,980.4
2023-02-23T12:51:05.274Z,980.3
2023-02-23T13:10:25.170Z,980.4
2023-02-23T13:29:45.852Z,980.4
2023-02-23T13:49:03.370Z,980.4
2023-02-23T14:08:22.605Z,980.5
2023-02-23T14:27:42.775Z,980.6
2023-02-23T14:47:02.367Z,980.6
2023-02-23T15:06:21.797Z,980.7
2023-02-23T15:25:40.016Z,980.7
2023-02-23T15:44:58.069Z,980.8
2023-02-23T16:04:16.372Z,980.9
2023-02-23T16:23:35.963Z,980.9
2023-02-23T16:43:00.098Z,980.9
2023-02-23T17:02:17.918Z,980.9
2023-02-23T17:21:37.584Z,981
2023-02-23T17:40:52.891Z,981
2023-02-23T18:00:14.002Z,981
2023-02-23T18:19:34.169Z,981.1
2023-02-23T18:38:53.217Z,981.2
2023-02-23T18:58:13.240Z,981.2
2023-02-23T19:17:31.844Z,981.1
2023-02-23T19:36:51.830Z,981
2023-02-23T19:56:11.395Z,981.1
2023-02-23T20:15:26.969Z,981.3
2023-02-23T20:34:45.853Z,981.3
2023-02-23T20:54:05.692Z,981.2
2023-02-23T21:13:25.440Z,981.3
2023-02-23T21:32:43.876Z,981.2
2023-02-23T21:52:03.196Z,981.1
2023-02-23T22:11:23.959Z,981.1
2023-02-23T22:30:42.798Z,980.9
2023-02-23T22:50:01.914Z,980.8
2023-02-23T23:09:19.720Z,980.6
2023-02-23T23:28:39.495Z,980.6
2023-02-23T23:47:59.336Z,980.3
